sensor_id;sensor_type;location;lat;lon;timestamp;pressure;altitude;pressure_sealevel;temperature;humidity
68889;BME280;55930;47.412;8.790;2022-09-09T00:00:49;94429.72;;;13.24;100.00
68889;BME280;55930;47.412;8.790;2022-09-09T00:03:26;94421.97;;;13.26;100.00
68889;BME280;55930;47.412;8.790;2022-09-09T00:06:01;94423.91;;;13.25;100.00
68889;BME280;55930;47.412;8.790;2022-09-09T00:11:24;94429.22;;;13.25;100.00
68889;BME280;55930;47.412;8.790;2022-09-09T00:13:57;94426.09;;;13.21;100.00
68889;BME280;55930;47.412;8.790;2022-09-09T00:16:25;94420.53;;;13.25;100.00
68889;BME280;55930;47.412;8.790;2022-09-09T00:21:26;94418.16;;;13.38;100.00
68889;BME280;55930;47.412;8.790;2022-09-09T00:23:57;94429.16;;;13.09;100.00
68889;BME280;55930;47.412;8.790;2022-09-09T00:26:49;94416.81;;;13.11;100.00
68889;BME280;55930;47.412;8.790;2022-09-09T00:29:34;94424.63;;;13.20;100.00
68889;BME280;55930;47.412;8.790;2022-09-09T00:32:11;94412.03;;;13.15;100.00
68889;BME280;55930;47.412;8.790;2022-09-09T00:34:47;94423.28;;;12.99;100.00
68889;BME280;55930;47.412;8.790;2022-09-09T00:37:13;94419.19;;;13.03;100.00
68889;BME280;55930;47.412;8.790;2022-09-09T00:39:49;94418.50;;;13.09;100.00
68889;BME280;55930;47.412;8.790;2022-09-09T00:42:24;94412.97;;;13.18;100.00
68889;BME280;55930;47.412;8.790;2022-09-09T00:45:32;94421.66;;;13.13;100.00
68889;BME280;55930;47.412;8.790;2022-09-09T00:47:52;94407.19;;;13.19;100.00
68889;BME280;55930;47.412;8.790;2022-09-09T00:56:20;94403.81;;;13.24;100.00
68889;BME280;55930;47.412;8.790;2022-09-09T00:58:38;94411.31;;;13.20;100.00
68889;BME280;55930;47.412;8.790;2022-09-09T01:01:11;94414.44;;;13.13;100.00
68889;BME280;55930;47.412;8.790;2022-09-09T01:03:56;94413.03;;;13.23;100.00
68889;BME280;55930;47.412;8.790;2022-09-09T01:06:35;94406.25;;;13.33;100.00
68889;BME280;55930;47.412;8.790;2022-09-09T01:11:59;94408.69;;;13.31;100.00
68889;BME280;55930;47.412;8.790;2022-09-09T01:22:36;94410.84;;;13.27;100.00
68889;BME280;55930;47.412;8.790;2022-09-09T01:27:40;94403.47;;;13.11;100.00
68889;BME280;55930;47.412;8.790;2022-09-09T01:30:15;94408.63;;;13.20;100.00
68889;BME280;55930;47.412;8.790;2022-09-09T01:32:42;94411.47;;;13.11;100.00
68889;BME280;55930;47.412;8.790;2022-09-09T01:35:28;94409.78;;;13.08;100.00
68889;BME280;55930;47.412;8.790;2022-09-09T01:37:55;94412.19;;;13.06;100.00
68889;BME280;55930;47.412;8.790;2022-09-09T01:40:21;94412.16;;;13.00;100.00
68889;BME280;55930;47.412;8.790;2022-09-09T01:42:46;94412.88;;;13.01;100.00
68889;BME280;55930;47.412;8.790;2022-09-09T01:45:12;94408.06;;;13.05;100.00
68889;BME280;55930;47.412;8.790;2022-09-09T01:47:37;94413.41;;;13.05;100.00
68889;BME280;55930;47.412;8.790;2022-09-09T01:50:03;94409.53;;;13.06;100.00
68889;BME280;55930;47.412;8.790;2022-09-09T01:52:33;94413.59;;;13.01;100.00
68889;BME280;55930;47.412;8.790;2022-09-09T01:55:04;94416.25;;;12.96;100.00
68889;BME280;55930;47.412;8.790;2022-09-09T01:57:33;94422.75;;;12.89;100.00
68889;BME280;55930;47.412;8.790;2022-09-09T02:00:07;94427.59;;;12.91;100.00
68889;BME280;55930;47.412;8.790;2022-09-09T02:05:36;94430.66;;;12.78;100.00
68889;BME280;55930;47.412;8.790;2022-09-09T02:08:18;94437.63;;;12.70;100.00
68889;BME280;55930;47.412;8.790;2022-09-09T02:11:09;94438.13;;;12.69;100.00
68889;BME280;55930;47.412;8.790;2022-09-09T02:13:38;94439.91;;;12.83;100.00
68889;BME280;55930;47.412;8.790;2022-09-09T02:16:10;94439.19;;;12.88;100.00
68889;BME280;55930;47.412;8.790;2022-09-09T02:18:46;94445.31;;;12.99;100.00
68889;BME280;55930;47.412;8.790;2022-09-09T02:21:13;94447.81;;;13.09;100.00
68889;BME280;55930;47.412;8.790;2022-09-09T02:23:42;94451.25;;;13.15;100.00
68889;BME280;55930;47.412;8.790;2022-09-09T02:26:12;94451.78;;;13.24;100.00
68889;BME280;55930;47.412;8.790;2022-09-09T02:28:40;94453.97;;;13.31;100.00
68889;BME280;55930;47.412;8.790;2022-09-09T02:31:07;94449.63;;;13.34;100.00
68889;BME280;55930;47.412;8.790;2022-09-09T02:33:37;94458.88;;;13.44;100.00
68889;BME280;55930;47.412;8.790;2022-09-09T02:36:06;94450.88;;;13.50;100.00
68889;BME280;55930;47.412;8.790;2022-09-09T02:38:36;94448.00;;;13.48;100.00
68889;BME280;55930;47.412;8.790;2022-09-09T02:41:05;94458.44;;;13.57;100.00
68889;BME280;55930;47.412;8.790;2022-09-09T02:43:34;94462.38;;;13.72;100.00
68889;BME280;55930;47.412;8.790;2022-09-09T02:49:01;94463.59;;;13.83;100.00
68889;BME280;55930;47.412;8.790;2022-09-09T02:51:53;94458.72;;;13.81;100.00
68889;BME280;55930;47.412;8.790;2022-09-09T02:54:34;94462.53;;;13.58;100.00
68889;BME280;55930;47.412;8.790;2022-09-09T02:59:33;94468.66;;;13.75;100.00
68889;BME280;55930;47.412;8.790;2022-09-09T03:01:58;94465.53;;;13.82;100.00
68889;BME280;55930;47.412;8.790;2022-09-09T03:04:24;94470.38;;;13.89;100.00
68889;BME280;55930;47.412;8.790;2022-09-09T03:06:50;94466.03;;;13.92;100.00
68889;BME280;55930;47.412;8.790;2022-09-09T03:09:15;94475.50;;;13.93;100.00
68889;BME280;55930;47.412;8.790;2022-09-09T03:11:41;94472.78;;;13.76;100.00
68889;BME280;55930;47.412;8.790;2022-09-09T03:14:06;94485.16;;;13.85;100.00
68889;BME280;55930;47.412;8.790;2022-09-09T03:16:32;94485.66;;;13.83;100.00
68889;BME280;55930;47.412;8.790;2022-09-09T03:19:00;94482.28;;;13.88;100.00
68889;BME280;55930;47.412;8.790;2022-09-09T03:21:25;94485.69;;;14.00;100.00
68889;BME280;55930;47.412;8.790;2022-09-09T03:23:51;94479.88;;;14.01;100.00
68889;BME280;55930;47.412;8.790;2022-09-09T03:26:16;94483.28;;;13.96;100.00
68889;BME280;55930;47.412;8.790;2022-09-09T03:28:42;94487.88;;;14.01;100.00
68889;BME280;55930;47.412;8.790;2022-09-09T03:31:08;94482.03;;;13.97;100.00
68889;BME280;55930;47.412;8.790;2022-09-09T03:33:36;94477.94;;;14.07;100.00
68889;BME280;55930;47.412;8.790;2022-09-09T03:36:05;94475.53;;;14.09;100.00
68889;BME280;55930;47.412;8.790;2022-09-09T03:38:33;94480.88;;;14.15;100.00
68889;BME280;55930;47.412;8.790;2022-09-09T03:40:59;94482.06;;;14.14;100.00
68889;BME280;55930;47.412;8.790;2022-09-09T03:43:26;94481.59;;;14.10;100.00
68889;BME280;55930;47.412;8.790;2022-09-09T03:45:52;94488.66;;;14.18;100.00
68889;BME280;55930;47.412;8.790;2022-09-09T03:48:18;94484.50;;;14.17;100.00
68889;BME280;55930;47.412;8.790;2022-09-09T03:50:48;94483.53;;;14.15;100.00
68889;BME280;55930;47.412;8.790;2022-09-09T03:53:15;94483.06;;;14.11;100.00
68889;BME280;55930;47.412;8.790;2022-09-09T03:55:45;94474.31;;;14.22;100.00
68889;BME280;55930;47.412;8.790;2022-09-09T03:58:15;94479.44;;;14.25;100.00
68889;BME280;55930;47.412;8.790;2022-09-09T04:00:52;94474.81;;;14.26;100.00
68889;BME280;55930;47.412;8.790;2022-09-09T04:03:18;94475.31;;;14.18;100.00
68889;BME280;55930;47.412;8.790;2022-09-09T04:05:49;94476.03;;;14.19;100.00
68889;BME280;55930;47.412;8.790;2022-09-09T04:08:17;94478.69;;;14.13;100.00
68889;BME280;55930;47.412;8.790;2022-09-09T04:10:49;94468.47;;;14.06;100.00
68889;BME280;55930;47.412;8.790;2022-09-09T04:13:16;94478.69;;;14.13;100.00
68889;BME280;55930;47.412;8.790;2022-09-09T04:15:43;94477.25;;;14.12;100.00
68889;BME280;55930;47.412;8.790;2022-09-09T04:18:09;94477.00;;;14.10;99.76
68889;BME280;55930;47.412;8.790;2022-09-09T04:20:34;94473.81;;;14.06;100.00
68889;BME280;55930;47.412;8.790;2022-09-09T04:23:00;94479.88;;;14.01;100.00
68889;BME280;55930;47.412;8.790;2022-09-09T04:25:26;94481.09;;;13.95;100.00
68889;BME280;55930;47.412;8.790;2022-09-09T04:27:55;94477.91;;;13.91;100.00
68889;BME280;55930;47.412;8.790;2022-09-09T04:30:21;94487.63;;;13.88;100.00
68889;BME280;55930;47.412;8.790;2022-09-09T04:32:47;94480.09;;;13.87;100.00
68889;BME280;55930;47.412;8.790;2022-09-09T04:35:13;94480.56;;;13.91;100.00
68889;BME280;55930;47.412;8.790;2022-09-09T04:37:38;94484.69;;;13.92;100.00
68889;BME280;55930;47.412;8.790;2022-09-09T04:40:04;94484.44;;;13.84;100.00
68889;BME280;55930;47.412;8.790;2022-09-09T04:42:30;94483.69;;;13.78;100.00
68889;BME280;55930;47.412;8.790;2022-09-09T04:44:57;94481.28;;;13.80;100.00
68889;BME280;55930;47.412;8.790;2022-09-09T04:47:23;94482.47;;;13.73;100.00
68889;BME280;55930;47.412;8.790;2022-09-09T04:49:51;94487.56;;;13.71;100.00
68889;BME280;55930;47.412;8.790;2022-09-09T04:52:17;94485.13;;;13.68;100.00
68889;BME280;55930;47.412;8.790;2022-09-09T04:54:45;94482.22;;;13.71;100.00
68889;BME280;55930;47.412;8.790;2022-09-09T04:57:15;94484.41;;;13.73;100.00
68889;BME280;55930;47.412;8.790;2022-09-09T04:59:41;94477.38;;;13.64;100.00
68889;BME280;55930;47.412;8.790;2022-09-09T05:02:06;94472.75;;;13.65;100.00
68889;BME280;55930;47.412;8.790;2022-09-09T05:04:32;94483.66;;;13.67;100.00
68889;BME280;55930;47.412;8.790;2022-09-09T05:06:58;94481.50;;;13.71;100.00
68889;BME280;55930;47.412;8.790;2022-09-09T05:09:24;94475.91;;;13.69;100.00
68889;BME280;55930;47.412;8.790;2022-09-09T05:11:49;94478.38;;;13.78;100.00
68889;BME280;55930;47.412;8.790;2022-09-09T05:14:15;94469.13;;;13.73;100.00
68889;BME280;55930;47.412;8.790;2022-09-09T05:16:41;94475.69;;;13.72;100.00
68889;BME280;55930;47.412;8.790;2022-09-09T05:19:09;94474.47;;;13.73;100.00
68889;BME280;55930;47.412;8.790;2022-09-09T05:21:34;94477.84;;;13.74;100.00
68889;BME280;55930;47.412;8.790;2022-09-09T05:24:00;94482.50;;;13.79;100.00
68889;BME280;55930;47.412;8.790;2022-09-09T05:26:28;94487.56;;;13.77;100.00
68889;BME280;55930;47.412;8.790;2022-09-09T05:28:54;94480.31;;;13.83;100.00
68889;BME280;55930;47.412;8.790;2022-09-09T05:31:22;94481.53;;;13.82;100.00
68889;BME280;55930;47.412;8.790;2022-09-09T05:33:49;94484.41;;;13.73;100.00
68889;BME280;55930;47.412;8.790;2022-09-09T05:36:21;94492.69;;;13.81;100.00
68889;BME280;55930;47.412;8.790;2022-09-09T05:38:47;94498.03;;;13.86;100.00
68889;BME280;55930;47.412;8.790;2022-09-09T05:41:13;94494.63;;;13.86;100.00
68889;BME280;55930;47.412;8.790;2022-09-09T05:43:41;94502.63;;;13.86;100.00
68889;BME280;55930;47.412;8.790;2022-09-09T05:46:13;94504.34;;;13.94;100.00
68889;BME280;55930;47.412;8.790;2022-09-09T05:48:44;94507.50;;;13.87;100.00
68889;BME280;55930;47.412;8.790;2022-09-09T05:51:13;94504.84;;;13.98;100.00
68889;BME280;55930;47.412;8.790;2022-09-09T05:53:40;94503.91;;;14.12;100.00
68889;BME280;55930;47.412;8.790;2022-09-09T05:56:09;94504.16;;;14.09;100.00
68889;BME280;55930;47.412;8.790;2022-09-09T05:58:40;94509.94;;;14.07;100.00
68889;BME280;55930;47.412;8.790;2022-09-09T06:03:35;94508.47;;;13.95;100.00
68889;BME280;55930;47.412;8.790;2022-09-09T06:06:03;94505.31;;;13.91;100.00
68889;BME280;55930;47.412;8.790;2022-09-09T06:08:33;94511.88;;;13.96;100.00
68889;BME280;55930;47.412;8.790;2022-09-09T06:11:04;94511.88;;;14.01;100.00
68889;BME280;55930;47.412;8.790;2022-09-09T06:13:30;94508.22;;;13.93;100.00
68889;BME280;55930;47.412;8.790;2022-09-09T06:15:55;94510.91;;;13.93;100.00
68889;BME280;55930;47.412;8.790;2022-09-09T06:18:21;94510.91;;;13.93;100.00
68889;BME280;55930;47.412;8.790;2022-09-09T06:20:59;94505.59;;;14.10;100.00
68889;BME280;55930;47.412;8.790;2022-09-09T06:23:26;94509.94;;;14.02;100.00
68889;BME280;55930;47.412;8.790;2022-09-09T06:26:11;94509.94;;;14.02;100.00
68889;BME280;55930;47.412;8.790;2022-09-09T06:28:36;94508.00;;;14.02;100.00
68889;BME280;55930;47.412;8.790;2022-09-09T06:31:10;94503.44;;;14.31;100.00
68889;BME280;55930;47.412;8.790;2022-09-09T06:33:40;94506.09;;;14.31;100.00
68889;BME280;55930;47.412;8.790;2022-09-09T06:36:13;94506.09;;;14.31;100.00
68889;BME280;55930;47.412;8.790;2022-09-09T06:38:41;94497.91;;;14.57;100.00
68889;BME280;55930;47.412;8.790;2022-09-09T06:41:08;94500.59;;;14.57;100.00
68889;BME280;55930;47.412;8.790;2022-09-09T06:43:36;94499.88;;;14.50;100.00
68889;BME280;55930;47.412;8.790;2022-09-09T06:46:06;94500.09;;;14.41;100.00
68889;BME280;55930;47.412;8.790;2022-09-09T06:48:33;94497.66;;;14.49;100.00
68889;BME280;55930;47.412;8.790;2022-09-09T06:51:19;94496.72;;;14.52;100.00
68889;BME280;55930;47.412;8.790;2022-09-09T06:53:46;94492.09;;;14.64;100.00
68889;BME280;55930;47.412;8.790;2022-09-09T06:56:32;94495.25;;;14.84;100.00
68889;BME280;55930;47.412;8.790;2022-09-09T06:59:00;94497.66;;;14.99;100.00
68889;BME280;55930;47.412;8.790;2022-09-09T07:01:37;94489.81;;;15.29;100.00
68889;BME280;55930;47.412;8.790;2022-09-09T07:04:03;94494.41;;;15.34;100.00
68889;BME280;55930;47.412;8.790;2022-09-09T07:06:38;94494.63;;;15.47;100.00
68889;BME280;55930;47.412;8.790;2022-09-09T07:09:05;94504.63;;;15.99;98.77
68889;BME280;55930;47.412;8.790;2022-09-09T07:11:33;94512.06;;;16.17;96.03
68889;BME280;55930;47.412;8.790;2022-09-09T07:14:00;94501.66;;;17.09;92.47
68889;BME280;55930;47.412;8.790;2022-09-09T07:16:26;94500.78;;;20.33;75.92
68889;BME280;55930;47.412;8.790;2022-09-09T07:18:53;94492.22;;;19.22;76.04
68889;BME280;55930;47.412;8.790;2022-09-09T07:21:24;94495.66;;;17.89;81.83
68889;BME280;55930;47.412;8.790;2022-09-09T07:23:53;94490.97;;;20.77;71.10
68889;BME280;55930;47.412;8.790;2022-09-09T07:26:24;94493.44;;;20.34;70.11
68889;BME280;55930;47.412;8.790;2022-09-09T07:28:50;94495.41;;;19.07;76.44
68889;BME280;55930;47.412;8.790;2022-09-09T07:31:17;94494.28;;;17.82;81.86
68889;BME280;55930;47.412;8.790;2022-09-09T07:33:44;94495.94;;;17.67;82.52
68889;BME280;55930;47.412;8.790;2022-09-09T07:36:19;94501.88;;;17.35;84.30
68889;BME280;55930;47.412;8.790;2022-09-09T07:38:55;94476.38;;;17.90;84.48
68889;BME280;55930;47.412;8.790;2022-09-09T07:41:24;94494.91;;;21.82;65.41
68889;BME280;55930;47.412;8.790;2022-09-09T07:43:51;94481.34;;;25.07;52.46
68889;BME280;55930;47.412;8.790;2022-09-09T07:46:20;94470.13;;;23.81;56.81
68889;BME280;55930;47.412;8.790;2022-09-09T07:48:51;94471.91;;;25.50;51.34
68889;BME280;55930;47.412;8.790;2022-09-09T07:51:19;94474.09;;;26.94;46.75
68889;BME280;55930;47.412;8.790;2022-09-09T07:53:48;94477.22;;;26.90;43.77
68889;BME280;55930;47.412;8.790;2022-09-09T07:56:17;94473.09;;;26.18;47.21
68889;BME280;55930;47.412;8.790;2022-09-09T07:58:45;94492.31;;;26.20;46.32
68889;BME280;55930;47.412;8.790;2022-09-09T08:01:26;94473.28;;;27.20;44.34
68889;BME280;55930;47.412;8.790;2022-09-09T08:04:03;94508.97;;;21.52;58.60
68889;BME280;55930;47.412;8.790;2022-09-09T08:06:32;94516.44;;;19.35;68.02
68889;BME280;55930;47.412;8.790;2022-09-09T08:08:58;94520.22;;;20.05;67.38
68889;BME280;55930;47.412;8.790;2022-09-09T08:11:26;94524.69;;;19.24;71.38
68889;BME280;55930;47.412;8.790;2022-09-09T08:13:54;94519.88;;;18.40;74.66
68889;BME280;55930;47.412;8.790;2022-09-09T08:16:25;94517.72;;;19.02;73.50
68889;BME280;55930;47.412;8.790;2022-09-09T08:18:53;94501.78;;;21.26;65.04
68889;BME280;55930;47.412;8.790;2022-09-09T08:21:24;94529.78;;;20.74;65.29
68889;BME280;55930;47.412;8.790;2022-09-09T08:23:51;94537.97;;;20.01;67.94
68889;BME280;55930;47.412;8.790;2022-09-09T08:26:21;94521.06;;;22.38;60.99
68889;BME280;55930;47.412;8.790;2022-09-09T08:28:48;94528.03;;;22.19;62.42
68889;BME280;55930;47.412;8.790;2022-09-09T08:31:20;94535.28;;;21.10;63.36
68889;BME280;55930;47.412;8.790;2022-09-09T08:33:47;94527.59;;;20.73;64.78
68889;BME280;55930;47.412;8.790;2022-09-09T08:36:18;94530.72;;;20.30;67.28
68889;BME280;55930;47.412;8.790;2022-09-09T08:38:48;94522.97;;;22.74;60.31
68889;BME280;55930;47.412;8.790;2022-09-09T08:43:52;94534.44;;;20.94;65.27
68889;BME280;55930;47.412;8.790;2022-09-09T08:52:17;94526.03;;;20.09;65.92
68889;BME280;55930;47.412;8.790;2022-09-09T08:54:44;94524.06;;;19.18;69.58
68889;BME280;55930;47.412;8.790;2022-09-09T08:57:19;94529.41;;;19.63;69.24
68889;BME280;55930;47.412;8.790;2022-09-09T08:59:46;94529.69;;;19.59;68.47
68889;BME280;55930;47.412;8.790;2022-09-09T09:02:40;94524.72;;;20.37;68.16
68889;BME280;55930;47.412;8.790;2022-09-09T09:05:15;94532.66;;;20.08;66.12
68889;BME280;55930;47.412;8.790;2022-09-09T09:08:08;94528.09;;;20.16;70.30
68889;BME280;55930;47.412;8.790;2022-09-09T09:13:10;94525.44;;;20.71;66.86
68889;BME280;55930;47.412;8.790;2022-09-09T09:15:37;94531.53;;;20.92;66.53
68889;BME280;55930;47.412;8.790;2022-09-09T09:18:04;94531.47;;;20.30;68.57
68889;BME280;55930;47.412;8.790;2022-09-09T09:20:42;94526.09;;;19.70;70.55
68889;BME280;55930;47.412;8.790;2022-09-09T09:23:19;94530.28;;;19.26;71.80
68889;BME280;55930;47.412;8.790;2022-09-09T09:25:47;94534.19;;;18.98;73.77
68889;BME280;55930;47.412;8.790;2022-09-09T09:28:25;94539.13;;;18.62;74.43
68889;BME280;55930;47.412;8.790;2022-09-09T09:36:01;94536.56;;;18.70;78.48
68889;BME280;55930;47.412;8.790;2022-09-09T09:38:28;94531.25;;;23.44;60.73
68889;BME280;55930;47.412;8.790;2022-09-09T09:40:56;94514.69;;;26.02;51.23
68889;BME280;55930;47.412;8.790;2022-09-09T09:43:35;94528.31;;;21.15;64.71
68889;BME280;55930;47.412;8.790;2022-09-09T09:46:03;94526.66;;;19.89;69.88
68889;BME280;55930;47.412;8.790;2022-09-09T09:48:31;94527.94;;;19.48;71.77
68889;BME280;55930;47.412;8.790;2022-09-09T09:51:09;94530.75;;;19.69;70.23
68889;BME280;55930;47.412;8.790;2022-09-09T09:53:37;94531.56;;;20.38;67.45
68889;BME280;55930;47.412;8.790;2022-09-09T09:56:10;94526.75;;;23.62;56.67
68889;BME280;55930;47.412;8.790;2022-09-09T10:01:31;94529.59;;;20.38;64.98
68889;BME280;55930;47.412;8.790;2022-09-09T10:04:18;94535.06;;;19.72;70.66
68889;BME280;55930;47.412;8.790;2022-09-09T10:06:46;94527.72;;;19.46;71.14
68889;BME280;55930;47.412;8.790;2022-09-09T10:09:24;94538.06;;;19.42;71.31
68889;BME280;55930;47.412;8.790;2022-09-09T10:12:18;94542.00;;;19.81;70.39
68889;BME280;55930;47.412;8.790;2022-09-09T10:22:28;94517.81;;;29.29;40.43
68889;BME280;55930;47.412;8.790;2022-09-09T10:33:33;94529.50;;;21.06;56.89
68889;BME280;55930;47.412;8.790;2022-09-09T10:36:13;94535.78;;;20.46;59.38
68889;BME280;55930;47.412;8.790;2022-09-09T10:38:47;94541.06;;;19.92;62.53
68889;BME280;55930;47.412;8.790;2022-09-09T10:41:18;94543.94;;;20.07;62.75
68889;BME280;55930;47.412;8.790;2022-09-09T10:56:56;94544.28;;;20.92;57.05
68889;BME280;55930;47.412;8.790;2022-09-09T10:59:33;94541.88;;;21.01;56.41
68889;BME280;55930;47.412;8.790;2022-09-09T11:02:27;94546.31;;;21.41;54.25
68889;BME280;55930;47.412;8.790;2022-09-09T11:05:14;94536.41;;;22.00;53.77
68889;BME280;55930;47.412;8.790;2022-09-09T11:10:48;94527.66;;;24.52;45.59
68889;BME280;55930;47.412;8.790;2022-09-09T11:16:31;94520.03;;;29.85;36.11
68889;BME280;55930;47.412;8.790;2022-09-09T11:21:49;94514.03;;;28.63;37.95
68889;BME280;55930;47.412;8.790;2022-09-09T11:29:48;94511.66;;;27.80;41.24
68889;BME280;55930;47.412;8.790;2022-09-09T11:35:19;94505.78;;;30.52;34.87
68889;BME280;55930;47.412;8.790;2022-09-09T11:40:40;94487.94;;;31.44;33.86
68889;BME280;55930;47.412;8.790;2022-09-09T11:43:27;94485.03;;;31.66;32.58
68889;BME280;55930;47.412;8.790;2022-09-09T11:45:55;94486.31;;;32.02;32.30
68889;BME280;55930;47.412;8.790;2022-09-09T11:48:57;94487.84;;;30.28;34.87
68889;BME280;55930;47.412;8.790;2022-09-09T11:53:54;94476.38;;;31.23;31.82
68889;BME280;55930;47.412;8.790;2022-09-09T11:56:29;94494.09;;;30.52;33.69
68889;BME280;55930;47.412;8.790;2022-09-09T11:59:03;94487.22;;;30.62;33.70
68889;BME280;55930;47.412;8.790;2022-09-09T12:06:50;94484.13;;;28.65;36.36
68889;BME280;55930;47.412;8.790;2022-09-09T12:09:21;94495.97;;;25.71;39.89
68889;BME280;55930;47.412;8.790;2022-09-09T12:11:48;94481.41;;;26.38;40.69
68889;BME280;55930;47.412;8.790;2022-09-09T12:14:35;94477.47;;;28.27;38.56
68889;BME280;55930;47.412;8.790;2022-09-09T12:17:21;94472.50;;;27.75;36.96
68889;BME280;55930;47.412;8.790;2022-09-09T12:19:48;94478.97;;;28.59;37.39
68889;BME280;55930;47.412;8.790;2022-09-09T12:27:26;94475.06;;;28.22;36.55
68889;BME280;55930;47.412;8.790;2022-09-09T12:30:02;94467.50;;;25.38;43.15
68889;BME280;55930;47.412;8.790;2022-09-09T12:32:28;94466.53;;;27.12;39.16
68889;BME280;55930;47.412;8.790;2022-09-09T12:37:32;94458.25;;;26.73;36.98
68889;BME280;55930;47.412;8.790;2022-09-09T12:40:01;94455.47;;;28.85;35.56
68889;BME280;55930;47.412;8.790;2022-09-09T12:42:28;94459.09;;;27.12;38.68
68889;BME280;55930;47.412;8.790;2022-09-09T12:44:56;94457.56;;;30.59;33.40
68889;BME280;55930;47.412;8.790;2022-09-09T12:52:47;94443.59;;;31.25;31.56
68889;BME280;55930;47.412;8.790;2022-09-09T12:55:20;94439.28;;;30.28;32.37
68889;BME280;55930;47.412;8.790;2022-09-09T12:57:48;94442.56;;;25.32;41.35
68889;BME280;55930;47.412;8.790;2022-09-09T13:02:54;94431.44;;;26.33;40.46
68889;BME280;55930;47.412;8.790;2022-09-09T13:05:26;94444.06;;;25.25;43.83
68889;BME280;55930;47.412;8.790;2022-09-09T13:08:03;94431.38;;;24.36;46.47
68889;BME280;55930;47.412;8.790;2022-09-09T13:10:33;94431.00;;;27.29;38.10
68889;BME280;55930;47.412;8.790;2022-09-09T13:13:00;94431.94;;;25.26;43.39
68889;BME280;55930;47.412;8.790;2022-09-09T13:15:28;94418.09;;;27.39;39.70
68889;BME280;55930;47.412;8.790;2022-09-09T13:18:04;94420.97;;;24.99;45.53
68889;BME280;55930;47.412;8.790;2022-09-09T13:20:31;94418.75;;;23.58;45.47
68889;BME280;55930;47.412;8.790;2022-09-09T13:22:57;94421.22;;;24.94;43.99
68889;BME280;55930;47.412;8.790;2022-09-09T13:25:29;94415.53;;;24.74;46.83
68889;BME280;55930;47.412;8.790;2022-09-09T13:30:40;94406.88;;;23.54;46.36
68889;BME280;55930;47.412;8.790;2022-09-09T13:35:59;94403.56;;;22.32;47.92
68889;BME280;55930;47.412;8.790;2022-09-09T13:38:27;94399.59;;;22.56;48.53
68889;BME280;55930;47.412;8.790;2022-09-09T13:41:07;94408.78;;;23.06;45.95
68889;BME280;55930;47.412;8.790;2022-09-09T13:43:52;94410.75;;;22.44;45.24
68889;BME280;55930;47.412;8.790;2022-09-09T13:46:38;94394.97;;;21.90;44.46
68889;BME280;55930;47.412;8.790;2022-09-09T13:51:41;94408.91;;;24.18;42.17
68889;BME280;55930;47.412;8.790;2022-09-09T13:54:10;94396.66;;;23.07;44.07
68889;BME280;55930;47.412;8.790;2022-09-09T13:56:37;94395.44;;;22.62;45.83
68889;BME280;55930;47.412;8.790;2022-09-09T13:59:06;94392.03;;;22.39;47.18
68889;BME280;55930;47.412;8.790;2022-09-09T14:01:31;94394.38;;;22.42;50.12
68889;BME280;55930;47.412;8.790;2022-09-09T14:03:59;94389.31;;;22.24;46.39
68889;BME280;55930;47.412;8.790;2022-09-09T14:06:25;94388.78;;;22.40;47.49
68889;BME280;55930;47.412;8.790;2022-09-09T14:08:51;94398.13;;;22.17;49.20
68889;BME280;55930;47.412;8.790;2022-09-09T14:11:17;94390.22;;;22.26;49.38
68889;BME280;55930;47.412;8.790;2022-09-09T14:13:43;94397.63;;;22.56;46.97
68889;BME280;55930;47.412;8.790;2022-09-09T14:16:09;94390.94;;;22.42;51.85
68889;BME280;55930;47.412;8.790;2022-09-09T14:18:36;94391.00;;;21.83;52.91
68889;BME280;55930;47.412;8.790;2022-09-09T14:21:03;94395.09;;;20.97;56.61
68889;BME280;55930;47.412;8.790;2022-09-09T14:23:29;94397.91;;;21.48;58.44
68889;BME280;55930;47.412;8.790;2022-09-09T14:25:55;94399.38;;;22.08;57.57
68889;BME280;55930;47.412;8.790;2022-09-09T14:28:20;94392.88;;;22.11;54.92
68889;BME280;55930;47.412;8.790;2022-09-09T14:30:46;94403.94;;;23.99;47.94
68889;BME280;55930;47.412;8.790;2022-09-09T14:33:15;94391.13;;;22.82;45.81
68889;BME280;55930;47.412;8.790;2022-09-09T14:35:44;94389.50;;;22.48;48.73
68889;BME280;55930;47.412;8.790;2022-09-09T14:38:09;94392.59;;;23.46;46.23
68889;BME280;55930;47.412;8.790;2022-09-09T14:40:36;94391.56;;;21.89;50.47
68889;BME280;55930;47.412;8.790;2022-09-09T14:43:02;94392.38;;;22.66;49.47
68889;BME280;55930;47.412;8.790;2022-09-09T14:45:28;94387.81;;;24.59;45.37
68889;BME280;55930;47.412;8.790;2022-09-09T14:47:54;94383.41;;;21.74;52.90
68889;BME280;55930;47.412;8.790;2022-09-09T14:50:21;94391.06;;;21.47;55.31
68889;BME280;55930;47.412;8.790;2022-09-09T14:52:47;94395.09;;;20.97;56.54
68889;BME280;55930;47.412;8.790;2022-09-09T14:55:13;94401.31;;;21.49;55.05
68889;BME280;55930;47.412;8.790;2022-09-09T14:57:38;94401.47;;;20.79;50.01
68889;BME280;55930;47.412;8.790;2022-09-09T15:00:06;94398.19;;;20.73;49.97
68889;BME280;55930;47.412;8.790;2022-09-09T15:02:37;94407.13;;;20.68;50.85
68889;BME280;55930;47.412;8.790;2022-09-09T15:05:03;94408.13;;;21.06;50.61
68889;BME280;55930;47.412;8.790;2022-09-09T15:07:29;94413.78;;;20.67;50.13
68889;BME280;55930;47.412;8.790;2022-09-09T15:09:57;94423.00;;;20.50;52.93
68889;BME280;55930;47.412;8.790;2022-09-09T15:12:23;94415.66;;;21.08;50.40
68889;BME280;55930;47.412;8.790;2022-09-09T15:14:49;94421.59;;;21.78;50.81
68889;BME280;55930;47.412;8.790;2022-09-09T15:17:15;94407.38;;;21.77;49.49
68889;BME280;55930;47.412;8.790;2022-09-09T15:19:41;94417.38;;;21.54;50.27
68889;BME280;55930;47.412;8.790;2022-09-09T15:22:07;94412.19;;;22.61;47.16
68889;BME280;55930;47.412;8.790;2022-09-09T15:24:33;94405.44;;;23.45;45.19
68889;BME280;55930;47.412;8.790;2022-09-09T15:27:02;94403.81;;;23.50;45.40